Piercetown, Arkansas
Current Conditions -  °F | °C
As of 11:53 AM on Sunday 25 Jan 2015 (Local Time) from KHRO Reporting Station
Overcast Overcast  
Wind Chill: 36°   Ceiling: 2300
Heat Index: 43°   Visibility: 10mi
Dew Point: 39°   Wind: 15mph
Humidity: 86%   Direction: 290°WNW
Pressure: 29.74"   Gusts: 29mph
Location:  36.0047°N, 93.218°W
Report Text: KHRO 251753Z AUTO 29013G25KT 10SM FEW017 BKN023 OVC043 06/04 A2974 RMK AO2 RAE18B22E52 SLP068 P0001 60003 T00610039 10094 20056 53013
Loading
Personal Weather Stations






























Interactive Weather Map New forecast layout! Learn more

10-Day Weather Forecast

Advertisements
Track Severe Weather on mobile